Tri Cities, Washington
Current Conditions -  °F | °C
As of 6:53 AM on Thursday 30 Oct 2014 (Local Time) from KPSC Reporting Station
Light Rain Light Rain  
Wind Chill: 50°   Ceiling: 9000
Heat Index: 50°   Visibility: 10mi
Dew Point: 49°   Wind: 5mph
Humidity: 96%   Direction: 290°WNW
Pressure: 30.07"   Gusts: NA
Location:  46.2289°N, 119.099°W
Report Text: KPSC 301353Z 29004KT 10SM -RA OVC090 10/09 A3007 RMK AO2 SLP183 P0000 T01000094
Loading
Personal Weather Stations






























Interactive Weather Map
Tropical Storm Tracking
New forecast layout! Learn more

10-Day Weather Forecast

Advertisements
Track Severe Weather on mobile